sensor_id;sensor_type;location;lat;lon;timestamp;temperature;humidity
22337;DHT22;14992;50.844;4.418;2023-05-10T00:02:26;14.90;99.90
22337;DHT22;14992;50.844;4.418;2023-05-10T00:04:56;14.90;99.90
22337;DHT22;14992;50.844;4.418;2023-05-10T00:07:25;15.00;99.90
22337;DHT22;14992;50.844;4.418;2023-05-10T00:09:54;15.10;99.90
22337;DHT22;14992;50.844;4.418;2023-05-10T00:12:23;15.10;99.90
22337;DHT22;14992;50.844;4.418;2023-05-10T00:14:52;15.10;99.90
22337;DHT22;14992;50.844;4.418;2023-05-10T00:17:21;15.10;99.90
22337;DHT22;14992;50.844;4.418;2023-05-10T00:19:50;15.00;99.90
22337;DHT22;14992;50.844;4.418;2023-05-10T00:22:20;15.00;99.90
22337;DHT22;14992;50.844;4.418;2023-05-10T00:24:49;15.00;99.90
22337;DHT22;14992;50.844;4.418;2023-05-10T00:27:19;15.00;99.90
22337;DHT22;14992;50.844;4.418;2023-05-10T00:29:48;15.10;99.90
22337;DHT22;14992;50.844;4.418;2023-05-10T00:32:17;15.20;99.90
22337;DHT22;14992;50.844;4.418;2023-05-10T00:34:46;15.20;99.90
22337;DHT22;14992;50.844;4.418;2023-05-10T00:37:15;15.10;99.90
22337;DHT22;14992;50.844;4.418;2023-05-10T00:39:45;15.10;99.90
22337;DHT22;14992;50.844;4.418;2023-05-10T00:42:14;15.10;99.90
22337;DHT22;14992;50.844;4.418;2023-05-10T00:44:43;15.20;99.90
22337;DHT22;14992;50.844;4.418;2023-05-10T00:47:12;15.10;99.90
22337;DHT22;14992;50.844;4.418;2023-05-10T00:49:41;15.10;99.90
22337;DHT22;14992;50.844;4.418;2023-05-10T00:52:11;15.00;99.90
22337;DHT22;14992;50.844;4.418;2023-05-10T00:54:40;15.00;99.90
22337;DHT22;14992;50.844;4.418;2023-05-10T00:57:10;15.00;99.90
22337;DHT22;14992;50.844;4.418;2023-05-10T00:59:39;15.00;99.90
22337;DHT22;14992;50.844;4.418;2023-05-10T01:02:08;14.90;99.90
22337;DHT22;14992;50.844;4.418;2023-05-10T01:04:38;15.00;99.90
22337;DHT22;14992;50.844;4.418;2023-05-10T01:07:07;14.90;99.90
22337;DHT22;14992;50.844;4.418;2023-05-10T01:09:37;15.00;99.90
22337;DHT22;14992;50.844;4.418;2023-05-10T01:12:06;15.00;99.90
22337;DHT22;14992;50.844;4.418;2023-05-10T01:14:37;15.00;99.90
22337;DHT22;14992;50.844;4.418;2023-05-10T01:17:07;15.00;99.90
22337;DHT22;14992;50.844;4.418;2023-05-10T01:19:38;15.00;99.90
22337;DHT22;14992;50.844;4.418;2023-05-10T01:22:24;15.10;99.90
22337;DHT22;14992;50.844;4.418;2023-05-10T01:25:16;15.10;99.90
22337;DHT22;14992;50.844;4.418;2023-05-10T01:28:02;15.10;99.90
22337;DHT22;14992;50.844;4.418;2023-05-10T01:31:06;15.10;99.90
22337;DHT22;14992;50.844;4.418;2023-05-10T01:33:43;15.00;99.90
22337;DHT22;14992;50.844;4.418;2023-05-10T01:36:22;15.00;99.90
22337;DHT22;14992;50.844;4.418;2023-05-10T01:38:58;15.10;99.90
22337;DHT22;14992;50.844;4.418;2023-05-10T01:41:39;15.00;99.90
22337;DHT22;14992;50.844;4.418;2023-05-10T01:44:16;15.00;99.90
22337;DHT22;14992;50.844;4.418;2023-05-10T01:46:50;15.10;99.90
22337;DHT22;14992;50.844;4.418;2023-05-10T01:49:25;15.10;99.90
22337;DHT22;14992;50.844;4.418;2023-05-10T01:51:59;15.10;99.90
22337;DHT22;14992;50.844;4.418;2023-05-10T01:54:29;15.00;99.90
22337;DHT22;14992;50.844;4.418;2023-05-10T01:57:01;15.00;99.90
22337;DHT22;14992;50.844;4.418;2023-05-10T01:59:34;15.00;99.90
22337;DHT22;14992;50.844;4.418;2023-05-10T02:02:07;15.10;99.90
22337;DHT22;14992;50.844;4.418;2023-05-10T02:04:41;15.00;99.90
22337;DHT22;14992;50.844;4.418;2023-05-10T02:07:11;15.00;99.90
22337;DHT22;14992;50.844;4.418;2023-05-10T02:09:42;15.00;99.90
22337;DHT22;14992;50.844;4.418;2023-05-10T02:12:15;15.00;99.90
22337;DHT22;14992;50.844;4.418;2023-05-10T02:14:45;14.90;99.90
22337;DHT22;14992;50.844;4.418;2023-05-10T02:17:16;14.90;99.90
22337;DHT22;14992;50.844;4.418;2023-05-10T02:19:47;14.90;99.90
22337;DHT22;14992;50.844;4.418;2023-05-10T02:22:22;15.00;99.90
22337;DHT22;14992;50.844;4.418;2023-05-10T02:24:54;15.00;99.90
22337;DHT22;14992;50.844;4.418;2023-05-10T02:27:24;15.00;99.90
22337;DHT22;14992;50.844;4.418;2023-05-10T02:29:54;14.90;99.90
22337;DHT22;14992;50.844;4.418;2023-05-10T02:32:25;14.80;99.90
22337;DHT22;14992;50.844;4.418;2023-05-10T02:34:56;14.90;99.90
22337;DHT22;14992;50.844;4.418;2023-05-10T02:37:26;14.90;99.90
22337;DHT22;14992;50.844;4.418;2023-05-10T02:39:56;14.90;99.90
22337;DHT22;14992;50.844;4.418;2023-05-10T02:42:27;15.00;99.90
22337;DHT22;14992;50.844;4.418;2023-05-10T02:45:01;14.90;99.90
22337;DHT22;14992;50.844;4.418;2023-05-10T02:47:30;14.90;99.90
22337;DHT22;14992;50.844;4.418;2023-05-10T02:50:01;14.90;99.90
22337;DHT22;14992;50.844;4.418;2023-05-10T02:52:39;14.80;99.90
22337;DHT22;14992;50.844;4.418;2023-05-10T02:55:09;14.90;99.90
22337;DHT22;14992;50.844;4.418;2023-05-10T02:57:43;14.80;99.90
22337;DHT22;14992;50.844;4.418;2023-05-10T03:00:15;14.80;99.90
22337;DHT22;14992;50.844;4.418;2023-05-10T03:02:44;14.80;99.90
22337;DHT22;14992;50.844;4.418;2023-05-10T03:05:15;14.80;99.90
22337;DHT22;14992;50.844;4.418;2023-05-10T03:07:44;14.80;99.90
22337;DHT22;14992;50.844;4.418;2023-05-10T03:10:14;14.80;99.90
22337;DHT22;14992;50.844;4.418;2023-05-10T03:13:07;14.70;99.90
22337;DHT22;14992;50.844;4.418;2023-05-10T03:15:48;14.70;99.90
22337;DHT22;14992;50.844;4.418;2023-05-10T03:18:23;14.70;99.90
22337;DHT22;14992;50.844;4.418;2023-05-10T03:20:59;14.70;99.90
22337;DHT22;14992;50.844;4.418;2023-05-10T03:23:35;14.70;99.90
22337;DHT22;14992;50.844;4.418;2023-05-10T03:26:06;14.60;99.90
22337;DHT22;14992;50.844;4.418;2023-05-10T03:28:36;14.60;99.90
22337;DHT22;14992;50.844;4.418;2023-05-10T03:31:06;14.60;99.90
22337;DHT22;14992;50.844;4.418;2023-05-10T03:33:46;14.40;99.90
22337;DHT22;14992;50.844;4.418;2023-05-10T03:36:19;14.30;99.90
22337;DHT22;14992;50.844;4.418;2023-05-10T03:38:48;14.20;99.90
22337;DHT22;14992;50.844;4.418;2023-05-10T03:41:17;14.10;99.90
22337;DHT22;14992;50.844;4.418;2023-05-10T03:43:48;14.20;99.90
22337;DHT22;14992;50.844;4.418;2023-05-10T03:46:17;14.20;99.90
22337;DHT22;14992;50.844;4.418;2023-05-10T03:48:46;14.30;99.90
22337;DHT22;14992;50.844;4.418;2023-05-10T03:51:15;14.30;99.90
22337;DHT22;14992;50.844;4.418;2023-05-10T03:53:45;14.30;99.90
22337;DHT22;14992;50.844;4.418;2023-05-10T03:56:14;14.30;99.90
22337;DHT22;14992;50.844;4.418;2023-05-10T03:58:43;14.30;99.90
22337;DHT22;14992;50.844;4.418;2023-05-10T04:01:12;14.30;99.90
22337;DHT22;14992;50.844;4.418;2023-05-10T04:03:41;14.30;99.90
22337;DHT22;14992;50.844;4.418;2023-05-10T04:06:12;14.10;99.90
22337;DHT22;14992;50.844;4.418;2023-05-10T04:08:41;14.10;99.90
22337;DHT22;14992;50.844;4.418;2023-05-10T04:11:13;14.20;99.90
22337;DHT22;14992;50.844;4.418;2023-05-10T04:13:42;14.20;99.90
22337;DHT22;14992;50.844;4.418;2023-05-10T04:16:11;14.20;99.90
22337;DHT22;14992;50.844;4.418;2023-05-10T04:18:40;14.20;99.90
22337;DHT22;14992;50.844;4.418;2023-05-10T04:21:11;14.20;99.90
22337;DHT22;14992;50.844;4.418;2023-05-10T04:23:40;14.20;99.90
22337;DHT22;14992;50.844;4.418;2023-05-10T04:26:09;14.20;99.90
22337;DHT22;14992;50.844;4.418;2023-05-10T04:28:40;14.20;99.90
22337;DHT22;14992;50.844;4.418;2023-05-10T04:31:09;14.20;99.90
22337;DHT22;14992;50.844;4.418;2023-05-10T04:33:38;14.30;99.90
22337;DHT22;14992;50.844;4.418;2023-05-10T04:36:08;14.20;99.90
22337;DHT22;14992;50.844;4.418;2023-05-10T04:38:37;14.20;99.90
22337;DHT22;14992;50.844;4.418;2023-05-10T04:41:06;14.00;99.90
22337;DHT22;14992;50.844;4.418;2023-05-10T04:43:36;14.10;99.90
22337;DHT22;14992;50.844;4.418;2023-05-10T04:46:07;14.10;99.90
22337;DHT22;14992;50.844;4.418;2023-05-10T04:48:36;14.20;99.90
22337;DHT22;14992;50.844;4.418;2023-05-10T04:51:05;14.10;99.90
22337;DHT22;14992;50.844;4.418;2023-05-10T04:53:34;14.00;99.90
22337;DHT22;14992;50.844;4.418;2023-05-10T04:56:03;14.20;99.90
22337;DHT22;14992;50.844;4.418;2023-05-10T04:58:32;14.20;99.90
22337;DHT22;14992;50.844;4.418;2023-05-10T05:01:07;14.20;99.90
22337;DHT22;14992;50.844;4.418;2023-05-10T05:03:38;14.30;99.90
22337;DHT22;14992;50.844;4.418;2023-05-10T05:06:07;14.20;99.90
22337;DHT22;14992;50.844;4.418;2023-05-10T05:08:36;14.20;99.90
22337;DHT22;14992;50.844;4.418;2023-05-10T05:11:05;14.10;99.90
22337;DHT22;14992;50.844;4.418;2023-05-10T05:13:33;14.00;99.90
22337;DHT22;14992;50.844;4.418;2023-05-10T05:16:03;14.10;99.90
22337;DHT22;14992;50.844;4.418;2023-05-10T05:18:33;14.10;99.90
22337;DHT22;14992;50.844;4.418;2023-05-10T05:21:02;14.20;99.90
22337;DHT22;14992;50.844;4.418;2023-05-10T05:23:31;14.30;99.90
22337;DHT22;14992;50.844;4.418;2023-05-10T05:26:00;14.50;99.90
22337;DHT22;14992;50.844;4.418;2023-05-10T05:28:29;14.50;99.90
22337;DHT22;14992;50.844;4.418;2023-05-10T05:31:00;14.50;99.90
22337;DHT22;14992;50.844;4.418;2023-05-10T05:33:29;14.50;99.90
22337;DHT22;14992;50.844;4.418;2023-05-10T05:36:00;14.40;99.90
22337;DHT22;14992;50.844;4.418;2023-05-10T05:38:29;14.50;99.90
22337;DHT22;14992;50.844;4.418;2023-05-10T05:40:58;14.60;99.90
22337;DHT22;14992;50.844;4.418;2023-05-10T05:43:27;14.60;99.90
22337;DHT22;14992;50.844;4.418;2023-05-10T05:45:56;14.70;99.90
22337;DHT22;14992;50.844;4.418;2023-05-10T05:48:25;14.70;99.90
22337;DHT22;14992;50.844;4.418;2023-05-10T05:50:55;14.80;99.90
22337;DHT22;14992;50.844;4.418;2023-05-10T05:53:26;14.90;99.90
22337;DHT22;14992;50.844;4.418;2023-05-10T05:55:56;15.10;99.90
22337;DHT22;14992;50.844;4.418;2023-05-10T05:58:25;15.10;99.90
22337;DHT22;14992;50.844;4.418;2023-05-10T06:00:55;15.10;99.90
22337;DHT22;14992;50.844;4.418;2023-05-10T06:03:24;15.00;99.90
22337;DHT22;14992;50.844;4.418;2023-05-10T06:05:54;15.00;99.90
22337;DHT22;14992;50.844;4.418;2023-05-10T06:08:22;15.10;99.90
22337;DHT22;14992;50.844;4.418;2023-05-10T06:10:53;14.90;99.90
22337;DHT22;14992;50.844;4.418;2023-05-10T06:13:21;14.90;99.90
22337;DHT22;14992;50.844;4.418;2023-05-10T06:15:50;14.80;99.90
22337;DHT22;14992;50.844;4.418;2023-05-10T06:18:19;14.90;99.90
22337;DHT22;14992;50.844;4.418;2023-05-10T06:20:49;14.90;99.90
22337;DHT22;14992;50.844;4.418;2023-05-10T06:23:19;14.70;99.90
22337;DHT22;14992;50.844;4.418;2023-05-10T06:25:48;14.50;99.90
22337;DHT22;14992;50.844;4.418;2023-05-10T06:28:18;14.50;99.90
22337;DHT22;14992;50.844;4.418;2023-05-10T06:30:47;14.50;99.90
22337;DHT22;14992;50.844;4.418;2023-05-10T06:33:16;14.70;99.90
22337;DHT22;14992;50.844;4.418;2023-05-10T06:35:45;14.70;99.90
22337;DHT22;14992;50.844;4.418;2023-05-10T06:38:14;14.60;99.90
22337;DHT22;14992;50.844;4.418;2023-05-10T06:40:43;14.70;99.90
22337;DHT22;14992;50.844;4.418;2023-05-10T06:43:12;14.60;99.90
22337;DHT22;14992;50.844;4.418;2023-05-10T06:45:43;14.50;99.90
22337;DHT22;14992;50.844;4.418;2023-05-10T06:48:12;14.50;99.90
22337;DHT22;14992;50.844;4.418;2023-05-10T06:50:41;14.50;99.90
22337;DHT22;14992;50.844;4.418;2023-05-10T06:53:10;14.60;99.90
22337;DHT22;14992;50.844;4.418;2023-05-10T06:55:39;14.70;99.90
22337;DHT22;14992;50.844;4.418;2023-05-10T06:58:08;14.80;99.90
22337;DHT22;14992;50.844;4.418;2023-05-10T07:00:37;14.80;99.90
22337;DHT22;14992;50.844;4.418;2023-05-10T07:03:09;14.80;99.90
22337;DHT22;14992;50.844;4.418;2023-05-10T07:05:38;14.90;99.90
22337;DHT22;14992;50.844;4.418;2023-05-10T07:08:07;14.90;99.90
22337;DHT22;14992;50.844;4.418;2023-05-10T07:10:36;14.90;99.90
22337;DHT22;14992;50.844;4.418;2023-05-10T07:13:05;14.80;99.90
22337;DHT22;14992;50.844;4.418;2023-05-10T07:15:34;14.80;99.90
22337;DHT22;14992;50.844;4.418;2023-05-10T07:18:03;14.70;99.90
22337;DHT22;14992;50.844;4.418;2023-05-10T07:20:35;14.80;99.90
22337;DHT22;14992;50.844;4.418;2023-05-10T07:23:04;14.70;99.90
22337;DHT22;14992;50.844;4.418;2023-05-10T07:25:33;14.70;99.90
22337;DHT22;14992;50.844;4.418;2023-05-10T07:28:02;14.70;99.90
22337;DHT22;14992;50.844;4.418;2023-05-10T07:30:31;14.70;99.90
22337;DHT22;14992;50.844;4.418;2023-05-10T07:33:00;14.60;99.90
22337;DHT22;14992;50.844;4.418;2023-05-10T07:35:29;14.60;99.90
22337;DHT22;14992;50.844;4.418;2023-05-10T07:38:00;14.60;99.90
22337;DHT22;14992;50.844;4.418;2023-05-10T07:40:29;14.80;99.90
22337;DHT22;14992;50.844;4.418;2023-05-10T07:42:58;14.70;99.90
22337;DHT22;14992;50.844;4.418;2023-05-10T07:45:29;14.70;99.90
22337;DHT22;14992;50.844;4.418;2023-05-10T07:47:58;14.60;99.90
22337;DHT22;14992;50.844;4.418;2023-05-10T07:50:28;14.60;99.90
22337;DHT22;14992;50.844;4.418;2023-05-10T07:52:58;14.60;99.90
22337;DHT22;14992;50.844;4.418;2023-05-10T07:55:27;14.60;99.90
22337;DHT22;14992;50.844;4.418;2023-05-10T07:57:57;14.60;99.90
22337;DHT22;14992;50.844;4.418;2023-05-10T08:00:28;14.60;99.90
22337;DHT22;14992;50.844;4.418;2023-05-10T08:02:57;14.60;99.90
22337;DHT22;14992;50.844;4.418;2023-05-10T08:05:26;14.60;99.90
22337;DHT22;14992;50.844;4.418;2023-05-10T08:07:55;14.50;99.90
22337;DHT22;14992;50.844;4.418;2023-05-10T08:10:26;14.50;99.90
22337;DHT22;14992;50.844;4.418;2023-05-10T08:12:55;14.70;99.90
22337;DHT22;14992;50.844;4.418;2023-05-10T08:15:26;14.80;99.90
22337;DHT22;14992;50.844;4.418;2023-05-10T08:17:54;14.80;99.90
22337;DHT22;14992;50.844;4.418;2023-05-10T08:20:24;14.90;99.90
22337;DHT22;14992;50.844;4.418;2023-05-10T08:22:53;15.00;99.90
22337;DHT22;14992;50.844;4.418;2023-05-10T08:25:22;15.10;99.90
22337;DHT22;14992;50.844;4.418;2023-05-10T08:27:53;15.00;99.90
22337;DHT22;14992;50.844;4.418;2023-05-10T08:30:22;15.00;99.90
22337;DHT22;14992;50.844;4.418;2023-05-10T08:32:51;15.00;99.90
22337;DHT22;14992;50.844;4.418;2023-05-10T08:35:20;15.20;99.90
22337;DHT22;14992;50.844;4.418;2023-05-10T08:37:49;15.10;99.90
22337;DHT22;14992;50.844;4.418;2023-05-10T08:40:19;15.30;99.90
22337;DHT22;14992;50.844;4.418;2023-05-10T08:42:54;15.40;99.90
22337;DHT22;14992;50.844;4.418;2023-05-10T08:45:24;15.40;99.90
22337;DHT22;14992;50.844;4.418;2023-05-10T08:47:55;15.40;99.90
22337;DHT22;14992;50.844;4.418;2023-05-10T08:50:25;15.60;99.90
22337;DHT22;14992;50.844;4.418;2023-05-10T08:52:56;15.60;99.90
22337;DHT22;14992;50.844;4.418;2023-05-10T08:55:26;15.70;99.90
22337;DHT22;14992;50.844;4.418;2023-05-10T08:57:56;15.70;99.90
22337;DHT22;14992;50.844;4.418;2023-05-10T09:00:25;15.60;99.90
22337;DHT22;14992;50.844;4.418;2023-05-10T09:02:55;15.70;99.90
22337;DHT22;14992;50.844;4.418;2023-05-10T09:05:24;15.90;99.90
22337;DHT22;14992;50.844;4.418;2023-05-10T09:07:54;15.90;99.90
22337;DHT22;14992;50.844;4.418;2023-05-10T09:10:23;15.90;99.90
22337;DHT22;14992;50.844;4.418;2023-05-10T09:12:56;16.00;99.90
22337;DHT22;14992;50.844;4.418;2023-05-10T09:15:26;16.00;99.90
22337;DHT22;14992;50.844;4.418;2023-05-10T09:17:55;16.10;99.90
22337;DHT22;14992;50.844;4.418;2023-05-10T09:20:25;16.00;99.90
22337;DHT22;14992;50.844;4.418;2023-05-10T09:22:54;15.90;99.90
22337;DHT22;14992;50.844;4.418;2023-05-10T09:25:23;15.80;99.90
22337;DHT22;14992;50.844;4.418;2023-05-10T09:27:52;15.60;99.90
22337;DHT22;14992;50.844;4.418;2023-05-10T09:30:27;15.40;99.90
22337;DHT22;14992;50.844;4.418;2023-05-10T09:32:57;15.30;99.90
22337;DHT22;14992;50.844;4.418;2023-05-10T09:35:29;15.20;99.90
22337;DHT22;14992;50.844;4.418;2023-05-10T09:38:05;15.30;99.90
22337;DHT22;14992;50.844;4.418;2023-05-10T09:40:34;15.30;99.90
22337;DHT22;14992;50.844;4.418;2023-05-10T09:43:04;15.40;99.90
22337;DHT22;14992;50.844;4.418;2023-05-10T09:45:36;15.40;99.90
22337;DHT22;14992;50.844;4.418;2023-05-10T09:48:06;15.50;99.90
22337;DHT22;14992;50.844;4.418;2023-05-10T09:50:35;15.40;99.90
22337;DHT22;14992;50.844;4.418;2023-05-10T09:53:04;15.40;99.90
22337;DHT22;14992;50.844;4.418;2023-05-10T09:55:40;15.30;99.90
22337;DHT22;14992;50.844;4.418;2023-05-10T09:58:11;15.30;99.90
22337;DHT22;14992;50.844;4.418;2023-05-10T10:00:44;15.40;99.90
22337;DHT22;14992;50.844;4.418;2023-05-10T10:03:16;15.30;99.90
22337;DHT22;14992;50.844;4.418;2023-05-10T10:05:46;15.30;99.90
22337;DHT22;14992;50.844;4.418;2023-05-10T10:08:15;15.20;99.90
22337;DHT22;14992;50.844;4.418;2023-05-10T10:10:45;15.20;99.90
22337;DHT22;14992;50.844;4.418;2023-05-10T10:13:15;15.30;99.90
22337;DHT22;14992;50.844;4.418;2023-05-10T10:15:46;15.30;99.90
22337;DHT22;14992;50.844;4.418;2023-05-10T10:18:18;15.30;99.90
22337;DHT22;14992;50.844;4.418;2023-05-10T10:20:51;15.30;99.90
22337;DHT22;14992;50.844;4.418;2023-05-10T10:23:21;15.30;99.90
22337;DHT22;14992;50.844;4.418;2023-05-10T10:25:51;15.40;99.90
22337;DHT22;14992;50.844;4.418;2023-05-10T10:28:26;15.40;99.90
22337;DHT22;14992;50.844;4.418;2023-05-10T10:31:02;15.60;99.90
22337;DHT22;14992;50.844;4.418;2023-05-10T10:33:55;15.60;99.90
22337;DHT22;14992;50.844;4.418;2023-05-10T10:36:25;15.70;99.90
22337;DHT22;14992;50.844;4.418;2023-05-10T10:38:57;15.80;99.90
22337;DHT22;14992;50.844;4.418;2023-05-10T10:41:28;16.00;99.90
22337;DHT22;14992;50.844;4.418;2023-05-10T10:44:23;16.10;99.90
22337;DHT22;14992;50.844;4.418;2023-05-10T10:47:04;16.00;99.90
22337;DHT22;14992;50.844;4.418;2023-05-10T10:49:44;16.00;99.90
22337;DHT22;14992;50.844;4.418;2023-05-10T10:52:22;16.00;99.90
22337;DHT22;14992;50.844;4.418;2023-05-10T10:54:59;16.00;99.90
22337;DHT22;14992;50.844;4.418;2023-05-10T10:57:32;16.10;99.90
22337;DHT22;14992;50.844;4.418;2023-05-10T11:00:19;16.20;99.90
22337;DHT22;14992;50.844;4.418;2023-05-10T11:02:51;16.20;99.90
22337;DHT22;14992;50.844;4.418;2023-05-10T11:05:25;16.20;99.90
22337;DHT22;14992;50.844;4.418;2023-05-10T11:07:55;16.30;99.90
22337;DHT22;14992;50.844;4.418;2023-05-10T11:10:26;16.40;99.90
22337;DHT22;14992;50.844;4.418;2023-05-10T11:12:59;16.50;99.90
22337;DHT22;14992;50.844;4.418;2023-05-10T11:15:29;16.60;99.90
22337;DHT22;14992;50.844;4.418;2023-05-10T11:18:16;16.90;99.90
22337;DHT22;14992;50.844;4.418;2023-05-10T11:20:50;17.10;99.90
22337;DHT22;14992;50.844;4.418;2023-05-10T11:23:19;17.20;99.90
22337;DHT22;14992;50.844;4.418;2023-05-10T11:25:49;17.10;99.90
22337;DHT22;14992;50.844;4.418;2023-05-10T11:28:18;17.20;99.90
22337;DHT22;14992;50.844;4.418;2023-05-10T11:30:47;17.30;99.90
22337;DHT22;14992;50.844;4.418;2023-05-10T11:33:19;17.40;99.90
22337;DHT22;14992;50.844;4.418;2023-05-10T11:35:48;17.50;99.90
22337;DHT22;14992;50.844;4.418;2023-05-10T11:38:17;17.50;99.90
22337;DHT22;14992;50.844;4.418;2023-05-10T11:40:46;17.40;99.90
22337;DHT22;14992;50.844;4.418;2023-05-10T11:43:15;17.50;99.90
22337;DHT22;14992;50.844;4.418;2023-05-10T11:45:45;17.70;99.90
22337;DHT22;14992;50.844;4.418;2023-05-10T11:48:14;17.80;99.90
22337;DHT22;14992;50.844;4.418;2023-05-10T11:50:46;18.00;99.90
22337;DHT22;14992;50.844;4.418;2023-05-10T11:53:15;18.20;99.90
22337;DHT22;14992;50.844;4.418;2023-05-10T11:55:44;18.50;99.90
22337;DHT22;14992;50.844;4.418;2023-05-10T11:58:13;18.40;99.90
22337;DHT22;14992;50.844;4.418;2023-05-10T12:00:42;18.60;99.90
22337;DHT22;14992;50.844;4.418;2023-05-10T12:03:11;18.60;99.90
22337;DHT22;14992;50.844;4.418;2023-05-10T12:05:40;18.50;99.90
22337;DHT22;14992;50.844;4.418;2023-05-10T12:08:15;18.70;99.90
22337;DHT22;14992;50.844;4.418;2023-05-10T12:10:44;18.60;99.90
22337;DHT22;14992;50.844;4.418;2023-05-10T12:13:14;18.60;99.90
22337;DHT22;14992;50.844;4.418;2023-05-10T12:15:43;18.70;99.90
22337;DHT22;14992;50.844;4.418;2023-05-10T12:18:13;18.80;99.90
22337;DHT22;14992;50.844;4.418;2023-05-10T12:20:42;18.60;99.90
22337;DHT22;14992;50.844;4.418;2023-05-10T12:23:11;18.60;99.90
22337;DHT22;14992;50.844;4.418;2023-05-10T12:25:42;18.70;99.90
22337;DHT22;14992;50.844;4.418;2023-05-10T12:28:12;18.80;99.90
22337;DHT22;14992;50.844;4.418;2023-05-10T12:30:41;18.80;99.90
22337;DHT22;14992;50.844;4.418;2023-05-10T12:33:11;19.00;99.90
22337;DHT22;14992;50.844;4.418;2023-05-10T12:35:45;19.10;99.90
22337;DHT22;14992;50.844;4.418;2023-05-10T12:38:28;19.40;99.90
22337;DHT22;14992;50.844;4.418;2023-05-10T12:41:00;19.40;99.90
22337;DHT22;14992;50.844;4.418;2023-05-10T12:43:30;19.50;99.90
22337;DHT22;14992;50.844;4.418;2023-05-10T12:46:04;19.50;99.90
22337;DHT22;14992;50.844;4.418;2023-05-10T12:48:34;19.60;99.90
22337;DHT22;14992;50.844;4.418;2023-05-10T12:51:04;19.70;99.90
22337;DHT22;14992;50.844;4.418;2023-05-10T12:53:38;19.70;99.90
22337;DHT22;14992;50.844;4.418;2023-05-10T12:56:12;19.80;99.90
22337;DHT22;14992;50.844;4.418;2023-05-10T12:58:41;19.80;99.90
22337;DHT22;14992;50.844;4.418;2023-05-10T13:01:15;19.80;99.90
22337;DHT22;14992;50.844;4.418;2023-05-10T13:03:45;19.80;99.90
22337;DHT22;14992;50.844;4.418;2023-05-10T13:06:14;19.90;99.90
22337;DHT22;14992;50.844;4.418;2023-05-10T13:08:43;19.90;99.90
22337;DHT22;14992;50.844;4.418;2023-05-10T13:11:13;19.80;99.90
22337;DHT22;14992;50.844;4.418;2023-05-10T13:13:44;19.70;99.90
22337;DHT22;14992;50.844;4.418;2023-05-10T13:16:13;19.50;99.90
22337;DHT22;14992;50.844;4.418;2023-05-10T13:18:42;19.20;99.90
22337;DHT22;14992;50.844;4.418;2023-05-10T13:21:11;19.40;99.90
22337;DHT22;14992;50.844;4.418;2023-05-10T13:23:40;19.60;99.90
22337;DHT22;14992;50.844;4.418;2023-05-10T13:26:09;19.80;99.90
22337;DHT22;14992;50.844;4.418;2023-05-10T13:28:40;20.00;99.90
22337;DHT22;14992;50.844;4.418;2023-05-10T13:31:09;19.90;99.90
22337;DHT22;14992;50.844;4.418;2023-05-10T13:33:38;20.10;99.90
22337;DHT22;14992;50.844;4.418;2023-05-10T13:36:07;20.20;99.90
22337;DHT22;14992;50.844;4.418;2023-05-10T13:38:36;20.20;99.90
22337;DHT22;14992;50.844;4.418;2023-05-10T13:41:05;19.90;99.90
22337;DHT22;14992;50.844;4.418;2023-05-10T13:43:34;19.60;99.90
22337;DHT22;14992;50.844;4.418;2023-05-10T13:46:05;19.50;99.90
22337;DHT22;14992;50.844;4.418;2023-05-10T13:48:34;19.40;99.90
22337;DHT22;14992;50.844;4.418;2023-05-10T13:51:05;19.30;99.90
22337;DHT22;14992;50.844;4.418;2023-05-10T13:53:35;19.20;99.90
22337;DHT22;14992;50.844;4.418;2023-05-10T13:56:04;19.30;99.90
22337;DHT22;14992;50.844;4.418;2023-05-10T13:58:33;19.40;99.90
22337;DHT22;14992;50.844;4.418;2023-05-10T14:01:04;19.50;99.90
22337;DHT22;14992;50.844;4.418;2023-05-10T14:03:34;19.40;99.90
22337;DHT22;14992;50.844;4.418;2023-05-10T14:06:03;19.20;99.90
22337;DHT22;14992;50.844;4.418;2023-05-10T14:08:35;19.20;99.90
22337;DHT22;14992;50.844;4.418;2023-05-10T14:11:04;19.20;99.90
22337;DHT22;14992;50.844;4.418;2023-05-10T14:13:34;19.30;99.90
22337;DHT22;14992;50.844;4.418;2023-05-10T14:16:05;19.20;99.90
22337;DHT22;14992;50.844;4.418;2023-05-10T14:18:34;19.20;99.90
22337;DHT22;14992;50.844;4.418;2023-05-10T14:21:03;19.30;99.90
22337;DHT22;14992;50.844;4.418;2023-05-10T14:23:33;19.20;99.90
22337;DHT22;14992;50.844;4.418;2023-05-10T14:26:02;19.10;99.90
22337;DHT22;14992;50.844;4.418;2023-05-10T14:28:31;19.20;99.90
22337;DHT22;14992;50.844;4.418;2023-05-10T14:31:00;19.00;99.90
22337;DHT22;14992;50.844;4.418;2023-05-10T14:33:31;19.00;99.90
22337;DHT22;14992;50.844;4.418;2023-05-10T14:36:00;18.90;99.90
22337;DHT22;14992;50.844;4.418;2023-05-10T14:38:30;19.00;99.90
22337;DHT22;14992;50.844;4.418;2023-05-10T14:40:59;19.10;99.90
22337;DHT22;14992;50.844;4.418;2023-05-10T14:43:28;19.20;99.90
22337;DHT22;14992;50.844;4.418;2023-05-10T14:45:58;19.30;99.90
22337;DHT22;14992;50.844;4.418;2023-05-10T14:48:27;19.30;99.90
22337;DHT22;14992;50.844;4.418;2023-05-10T14:50:57;19.20;99.90
22337;DHT22;14992;50.844;4.418;2023-05-10T14:53:26;18.90;99.90
22337;DHT22;14992;50.844;4.418;2023-05-10T14:55:55;18.70;99.90
22337;DHT22;14992;50.844;4.418;2023-05-10T14:58:23;18.50;99.90
22337;DHT22;14992;50.844;4.418;2023-05-10T15:00:52;18.20;99.90
22337;DHT22;14992;50.844;4.418;2023-05-10T15:03:22;18.10;99.90
22337;DHT22;14992;50.844;4.418;2023-05-10T15:05:51;18.00;99.90
22337;DHT22;14992;50.844;4.418;2023-05-10T15:08:22;18.00;99.90
22337;DHT22;14992;50.844;4.418;2023-05-10T15:10:51;18.10;99.90
22337;DHT22;14992;50.844;4.418;2023-05-10T15:13:22;17.90;99.90
22337;DHT22;14992;50.844;4.418;2023-05-10T15:15:51;17.60;99.90
22337;DHT22;14992;50.844;4.418;2023-05-10T15:18:21;17.30;99.90
22337;DHT22;14992;50.844;4.418;2023-05-10T15:20:53;17.30;99.90
22337;DHT22;14992;50.844;4.418;2023-05-10T15:23:24;17.30;99.90
22337;DHT22;14992;50.844;4.418;2023-05-10T15:25:53;17.30;99.90
22337;DHT22;14992;50.844;4.418;2023-05-10T15:28:23;17.40;99.90
22337;DHT22;14992;50.844;4.418;2023-05-10T15:30:52;17.40;99.90
22337;DHT22;14992;50.844;4.418;2023-05-10T15:33:21;17.60;99.90
22337;DHT22;14992;50.844;4.418;2023-05-10T15:35:50;17.60;99.90
22337;DHT22;14992;50.844;4.418;2023-05-10T15:38:21;17.50;99.90
22337;DHT22;14992;50.844;4.418;2023-05-10T15:40:51;17.50;99.90
22337;DHT22;14992;50.844;4.418;2023-05-10T15:43:23;17.70;99.90
22337;DHT22;14992;50.844;4.418;2023-05-10T15:45:52;17.90;99.90
22337;DHT22;14992;50.844;4.418;2023-05-10T15:48:21;18.20;99.90
22337;DHT22;14992;50.844;4.418;2023-05-10T15:50:50;18.30;99.90
22337;DHT22;14992;50.844;4.418;2023-05-10T15:53:20;18.50;99.90